sensor_id;sensor_type;location;lat;lon;timestamp;temperature;humidity
13652;DHT22;6899;51.546;6.912;2024-02-26T00:01:46;5.40;99.90
13652;DHT22;6899;51.546;6.912;2024-02-26T00:04:14;5.50;99.90
13652;DHT22;6899;51.546;6.912;2024-02-26T00:06:40;5.40;99.90
13652;DHT22;6899;51.546;6.912;2024-02-26T00:09:07;5.40;99.90
13652;DHT22;6899;51.546;6.912;2024-02-26T00:11:35;5.40;99.90
13652;DHT22;6899;51.546;6.912;2024-02-26T00:14:02;5.40;99.90
13652;DHT22;6899;51.546;6.912;2024-02-26T00:16:29;5.30;99.90
13652;DHT22;6899;51.546;6.912;2024-02-26T00:18:55;5.30;99.90
13652;DHT22;6899;51.546;6.912;2024-02-26T00:21:24;5.30;99.90
13652;DHT22;6899;51.546;6.912;2024-02-26T00:23:50;5.20;99.90
13652;DHT22;6899;51.546;6.912;2024-02-26T00:26:17;5.30;99.90
13652;DHT22;6899;51.546;6.912;2024-02-26T00:28:44;5.30;99.90
13652;DHT22;6899;51.546;6.912;2024-02-26T00:31:11;5.30;99.90
13652;DHT22;6899;51.546;6.912;2024-02-26T00:33:37;5.20;99.90
13652;DHT22;6899;51.546;6.912;2024-02-26T00:36:05;5.00;99.90
13652;DHT22;6899;51.546;6.912;2024-02-26T00:38:33;4.90;99.90
13652;DHT22;6899;51.546;6.912;2024-02-26T00:41:00;4.80;99.90
13652;DHT22;6899;51.546;6.912;2024-02-26T00:43:27;4.80;99.90
13652;DHT22;6899;51.546;6.912;2024-02-26T00:45:54;4.80;99.90
13652;DHT22;6899;51.546;6.912;2024-02-26T00:48:20;4.70;99.90
13652;DHT22;6899;51.546;6.912;2024-02-26T00:50:47;4.70;99.90
13652;DHT22;6899;51.546;6.912;2024-02-26T00:53:14;4.70;99.90
13652;DHT22;6899;51.546;6.912;2024-02-26T00:55:42;4.60;99.90
13652;DHT22;6899;51.546;6.912;2024-02-26T00:58:09;4.70;99.90
13652;DHT22;6899;51.546;6.912;2024-02-26T01:00:35;4.70;99.90
13652;DHT22;6899;51.546;6.912;2024-02-26T01:03:03;4.60;99.90
13652;DHT22;6899;51.546;6.912;2024-02-26T01:05:30;4.70;99.90
13652;DHT22;6899;51.546;6.912;2024-02-26T01:07:57;4.70;99.90
13652;DHT22;6899;51.546;6.912;2024-02-26T01:10:23;4.70;99.90
13652;DHT22;6899;51.546;6.912;2024-02-26T01:12:51;4.80;99.90
13652;DHT22;6899;51.546;6.912;2024-02-26T01:15:18;4.70;99.90
13652;DHT22;6899;51.546;6.912;2024-02-26T01:17:49;4.80;99.90
13652;DHT22;6899;51.546;6.912;2024-02-26T01:20:15;4.80;99.90
13652;DHT22;6899;51.546;6.912;2024-02-26T01:22:42;4.80;99.90
13652;DHT22;6899;51.546;6.912;2024-02-26T01:25:09;4.80;99.90
13652;DHT22;6899;51.546;6.912;2024-02-26T01:27:37;4.90;99.90
13652;DHT22;6899;51.546;6.912;2024-02-26T01:30:06;5.00;99.90
13652;DHT22;6899;51.546;6.912;2024-02-26T01:32:33;5.00;99.90
13652;DHT22;6899;51.546;6.912;2024-02-26T01:35:01;5.10;99.90
13652;DHT22;6899;51.546;6.912;2024-02-26T01:37:29;5.10;99.90
13652;DHT22;6899;51.546;6.912;2024-02-26T01:39:56;5.10;99.90
13652;DHT22;6899;51.546;6.912;2024-02-26T01:42:22;5.10;99.90
13652;DHT22;6899;51.546;6.912;2024-02-26T01:44:49;5.10;99.90
13652;DHT22;6899;51.546;6.912;2024-02-26T01:47:17;5.10;99.90
13652;DHT22;6899;51.546;6.912;2024-02-26T01:49:44;5.00;99.90
13652;DHT22;6899;51.546;6.912;2024-02-26T01:52:11;5.10;99.90
13652;DHT22;6899;51.546;6.912;2024-02-26T01:54:39;5.20;99.90
13652;DHT22;6899;51.546;6.912;2024-02-26T01:57:08;5.20;99.90
13652;DHT22;6899;51.546;6.912;2024-02-26T01:59:35;5.20;99.90
13652;DHT22;6899;51.546;6.912;2024-02-26T02:02:06;5.20;99.90
13652;DHT22;6899;51.546;6.912;2024-02-26T02:04:36;5.20;99.90
13652;DHT22;6899;51.546;6.912;2024-02-26T02:07:04;5.10;99.90
13652;DHT22;6899;51.546;6.912;2024-02-26T02:09:32;5.10;99.90
13652;DHT22;6899;51.546;6.912;2024-02-26T02:12:00;5.10;99.90
13652;DHT22;6899;51.546;6.912;2024-02-26T02:14:27;5.10;99.90
13652;DHT22;6899;51.546;6.912;2024-02-26T02:16:54;5.10;99.90
13652;DHT22;6899;51.546;6.912;2024-02-26T02:19:21;5.10;99.90
13652;DHT22;6899;51.546;6.912;2024-02-26T02:21:49;5.10;99.90
13652;DHT22;6899;51.546;6.912;2024-02-26T02:24:15;5.20;99.90
13652;DHT22;6899;51.546;6.912;2024-02-26T02:26:42;5.20;99.90
13652;DHT22;6899;51.546;6.912;2024-02-26T02:29:09;5.10;99.90
13652;DHT22;6899;51.546;6.912;2024-02-26T02:31:36;5.10;99.90
13652;DHT22;6899;51.546;6.912;2024-02-26T02:34:03;5.20;99.90
13652;DHT22;6899;51.546;6.912;2024-02-26T02:36:30;5.20;99.90
13652;DHT22;6899;51.546;6.912;2024-02-26T02:38:58;5.20;99.90
13652;DHT22;6899;51.546;6.912;2024-02-26T02:41:25;5.20;99.90
13652;DHT22;6899;51.546;6.912;2024-02-26T02:43:55;5.10;99.90
13652;DHT22;6899;51.546;6.912;2024-02-26T02:46:21;5.10;99.90
13652;DHT22;6899;51.546;6.912;2024-02-26T02:48:48;5.10;99.90
13652;DHT22;6899;51.546;6.912;2024-02-26T02:51:15;5.10;99.90
13652;DHT22;6899;51.546;6.912;2024-02-26T02:53:42;5.10;99.90
13652;DHT22;6899;51.546;6.912;2024-02-26T02:56:10;5.10;99.90
13652;DHT22;6899;51.546;6.912;2024-02-26T02:58:37;5.10;99.90
13652;DHT22;6899;51.546;6.912;2024-02-26T03:01:03;5.20;99.90
13652;DHT22;6899;51.546;6.912;2024-02-26T03:03:30;5.20;99.90
13652;DHT22;6899;51.546;6.912;2024-02-26T03:05:57;5.20;99.90
13652;DHT22;6899;51.546;6.912;2024-02-26T03:08:24;5.20;99.90
13652;DHT22;6899;51.546;6.912;2024-02-26T03:10:51;5.20;99.90
13652;DHT22;6899;51.546;6.912;2024-02-26T03:13:19;5.10;99.90
13652;DHT22;6899;51.546;6.912;2024-02-26T03:15:46;5.10;99.90
13652;DHT22;6899;51.546;6.912;2024-02-26T03:18:12;5.20;99.90
13652;DHT22;6899;51.546;6.912;2024-02-26T03:20:39;5.20;99.90
13652;DHT22;6899;51.546;6.912;2024-02-26T03:23:06;5.20;99.90
13652;DHT22;6899;51.546;6.912;2024-02-26T03:25:35;5.20;99.90
13652;DHT22;6899;51.546;6.912;2024-02-26T03:28:02;5.20;99.90
13652;DHT22;6899;51.546;6.912;2024-02-26T03:30:30;5.10;99.90
13652;DHT22;6899;51.546;6.912;2024-02-26T03:32:56;5.20;99.90
13652;DHT22;6899;51.546;6.912;2024-02-26T03:35:23;5.10;99.90
13652;DHT22;6899;51.546;6.912;2024-02-26T03:37:50;5.10;99.90
13652;DHT22;6899;51.546;6.912;2024-02-26T03:40:17;5.00;99.90
13652;DHT22;6899;51.546;6.912;2024-02-26T03:42:45;5.10;99.90
13652;DHT22;6899;51.546;6.912;2024-02-26T03:45:11;5.00;99.90
13652;DHT22;6899;51.546;6.912;2024-02-26T03:47:40;5.00;99.90
13652;DHT22;6899;51.546;6.912;2024-02-26T03:50:07;4.90;99.90
13652;DHT22;6899;51.546;6.912;2024-02-26T03:52:34;4.90;99.90
13652;DHT22;6899;51.546;6.912;2024-02-26T03:55:01;4.80;99.90
13652;DHT22;6899;51.546;6.912;2024-02-26T03:57:27;4.70;99.90
13652;DHT22;6899;51.546;6.912;2024-02-26T03:59:54;4.70;99.90
13652;DHT22;6899;51.546;6.912;2024-02-26T04:02:21;4.60;99.90
13652;DHT22;6899;51.546;6.912;2024-02-26T04:04:49;4.50;99.90
13652;DHT22;6899;51.546;6.912;2024-02-26T04:07:16;4.50;99.90
13652;DHT22;6899;51.546;6.912;2024-02-26T04:09:44;4.50;99.90
13652;DHT22;6899;51.546;6.912;2024-02-26T04:12:11;4.40;99.90
13652;DHT22;6899;51.546;6.912;2024-02-26T04:14:37;4.40;99.90
13652;DHT22;6899;51.546;6.912;2024-02-26T04:17:04;4.40;99.90
13652;DHT22;6899;51.546;6.912;2024-02-26T04:19:31;4.30;99.90
13652;DHT22;6899;51.546;6.912;2024-02-26T04:21:59;4.30;99.90
13652;DHT22;6899;51.546;6.912;2024-02-26T04:24:26;4.30;99.90
13652;DHT22;6899;51.546;6.912;2024-02-26T04:26:53;4.30;99.90
13652;DHT22;6899;51.546;6.912;2024-02-26T04:29:20;4.30;99.90
13652;DHT22;6899;51.546;6.912;2024-02-26T04:31:46;4.30;99.90
13652;DHT22;6899;51.546;6.912;2024-02-26T04:34:13;4.30;99.90
13652;DHT22;6899;51.546;6.912;2024-02-26T04:36:40;4.30;99.90
13652;DHT22;6899;51.546;6.912;2024-02-26T04:39:09;4.20;99.90
13652;DHT22;6899;51.546;6.912;2024-02-26T04:41:36;4.30;99.90
13652;DHT22;6899;51.546;6.912;2024-02-26T04:44:03;4.20;99.90
13652;DHT22;6899;51.546;6.912;2024-02-26T04:46:30;4.30;99.90
13652;DHT22;6899;51.546;6.912;2024-02-26T04:48:57;4.20;99.90
13652;DHT22;6899;51.546;6.912;2024-02-26T04:51:24;4.20;99.90
13652;DHT22;6899;51.546;6.912;2024-02-26T04:53:50;4.20;99.90
13652;DHT22;6899;51.546;6.912;2024-02-26T04:56:20;4.20;99.90
13652;DHT22;6899;51.546;6.912;2024-02-26T04:58:47;4.20;99.90
13652;DHT22;6899;51.546;6.912;2024-02-26T05:01:14;4.20;99.90
13652;DHT22;6899;51.546;6.912;2024-02-26T05:03:42;4.20;99.90
13652;DHT22;6899;51.546;6.912;2024-02-26T05:06:09;4.20;99.90
13652;DHT22;6899;51.546;6.912;2024-02-26T05:08:36;4.20;99.90
13652;DHT22;6899;51.546;6.912;2024-02-26T05:11:04;4.20;99.90
13652;DHT22;6899;51.546;6.912;2024-02-26T05:13:32;4.20;99.90
13652;DHT22;6899;51.546;6.912;2024-02-26T05:15:59;4.30;99.90
13652;DHT22;6899;51.546;6.912;2024-02-26T05:18:26;4.20;99.90
13652;DHT22;6899;51.546;6.912;2024-02-26T05:20:52;4.20;99.90
13652;DHT22;6899;51.546;6.912;2024-02-26T05:23:19;4.20;99.90
13652;DHT22;6899;51.546;6.912;2024-02-26T05:25:46;4.20;99.90
13652;DHT22;6899;51.546;6.912;2024-02-26T05:28:13;4.20;99.90
13652;DHT22;6899;51.546;6.912;2024-02-26T05:30:42;4.20;99.90
13652;DHT22;6899;51.546;6.912;2024-02-26T05:33:09;4.10;99.90
13652;DHT22;6899;51.546;6.912;2024-02-26T05:35:36;4.20;99.90
13652;DHT22;6899;51.546;6.912;2024-02-26T05:38:03;4.10;99.90
13652;DHT22;6899;51.546;6.912;2024-02-26T05:40:30;4.10;99.90
13652;DHT22;6899;51.546;6.912;2024-02-26T05:42:56;4.10;99.90
13652;DHT22;6899;51.546;6.912;2024-02-26T05:45:23;4.10;99.90
13652;DHT22;6899;51.546;6.912;2024-02-26T05:47:51;4.10;99.90
13652;DHT22;6899;51.546;6.912;2024-02-26T05:50:18;4.10;99.90
13652;DHT22;6899;51.546;6.912;2024-02-26T05:52:45;4.10;99.90
13652;DHT22;6899;51.546;6.912;2024-02-26T05:55:11;4.10;99.90
13652;DHT22;6899;51.546;6.912;2024-02-26T05:57:39;4.10;99.90
13652;DHT22;6899;51.546;6.912;2024-02-26T06:00:07;4.10;99.90
13652;DHT22;6899;51.546;6.912;2024-02-26T06:02:34;4.10;99.90
13652;DHT22;6899;51.546;6.912;2024-02-26T06:05:02;4.10;99.90
13652;DHT22;6899;51.546;6.912;2024-02-26T06:07:29;4.10;99.90
13652;DHT22;6899;51.546;6.912;2024-02-26T06:09:55;4.00;99.90
13652;DHT22;6899;51.546;6.912;2024-02-26T06:12:22;4.10;99.90
13652;DHT22;6899;51.546;6.912;2024-02-26T06:14:49;4.10;99.90
13652;DHT22;6899;51.546;6.912;2024-02-26T06:17:16;4.10;99.90
13652;DHT22;6899;51.546;6.912;2024-02-26T06:19:43;4.10;99.90
13652;DHT22;6899;51.546;6.912;2024-02-26T06:22:11;4.10;99.90
13652;DHT22;6899;51.546;6.912;2024-02-26T06:24:37;4.10;99.90
13652;DHT22;6899;51.546;6.912;2024-02-26T06:27:04;4.10;99.90
13652;DHT22;6899;51.546;6.912;2024-02-26T06:29:31;4.10;99.90
13652;DHT22;6899;51.546;6.912;2024-02-26T06:31:58;4.20;99.90
13652;DHT22;6899;51.546;6.912;2024-02-26T06:34:24;4.20;99.90
13652;DHT22;6899;51.546;6.912;2024-02-26T06:36:51;4.20;99.90
13652;DHT22;6899;51.546;6.912;2024-02-26T06:39:19;4.20;99.90
13652;DHT22;6899;51.546;6.912;2024-02-26T06:41:46;4.20;99.90
13652;DHT22;6899;51.546;6.912;2024-02-26T06:44:13;4.20;99.90
13652;DHT22;6899;51.546;6.912;2024-02-26T06:46:40;4.20;99.90
13652;DHT22;6899;51.546;6.912;2024-02-26T06:49:07;4.20;99.90
13652;DHT22;6899;51.546;6.912;2024-02-26T06:51:33;4.20;99.90
13652;DHT22;6899;51.546;6.912;2024-02-26T06:54:00;4.20;99.90
13652;DHT22;6899;51.546;6.912;2024-02-26T06:56:28;4.20;99.90
13652;DHT22;6899;51.546;6.912;2024-02-26T06:58:55;4.20;99.90
13652;DHT22;6899;51.546;6.912;2024-02-26T07:01:22;4.30;99.90
13652;DHT22;6899;51.546;6.912;2024-02-26T07:03:49;4.20;99.90
13652;DHT22;6899;51.546;6.912;2024-02-26T07:06:15;4.30;99.90
13652;DHT22;6899;51.546;6.912;2024-02-26T07:08:42;4.20;99.90
13652;DHT22;6899;51.546;6.912;2024-02-26T07:11:10;4.30;99.90
13652;DHT22;6899;51.546;6.912;2024-02-26T07:13:38;4.30;99.90
13652;DHT22;6899;51.546;6.912;2024-02-26T07:16:05;4.30;99.90
13652;DHT22;6899;51.546;6.912;2024-02-26T07:18:32;4.30;99.90
13652;DHT22;6899;51.546;6.912;2024-02-26T07:21:01;4.40;99.90
13652;DHT22;6899;51.546;6.912;2024-02-26T07:23:28;4.30;99.90
13652;DHT22;6899;51.546;6.912;2024-02-26T07:25:55;4.40;99.90
13652;DHT22;6899;51.546;6.912;2024-02-26T07:28:21;4.30;99.90
13652;DHT22;6899;51.546;6.912;2024-02-26T07:30:49;4.40;99.90
13652;DHT22;6899;51.546;6.912;2024-02-26T07:33:16;4.40;99.90
13652;DHT22;6899;51.546;6.912;2024-02-26T07:35:43;4.40;99.90
13652;DHT22;6899;51.546;6.912;2024-02-26T07:38:10;4.50;99.90
13652;DHT22;6899;51.546;6.912;2024-02-26T07:40:38;4.50;99.90
13652;DHT22;6899;51.546;6.912;2024-02-26T07:43:05;4.50;99.90
13652;DHT22;6899;51.546;6.912;2024-02-26T07:45:33;4.50;99.90
13652;DHT22;6899;51.546;6.912;2024-02-26T07:48:03;4.50;99.90
13652;DHT22;6899;51.546;6.912;2024-02-26T07:50:30;4.50;99.90
13652;DHT22;6899;51.546;6.912;2024-02-26T07:52:57;4.50;99.90
13652;DHT22;6899;51.546;6.912;2024-02-26T07:55:24;4.50;99.90
13652;DHT22;6899;51.546;6.912;2024-02-26T07:57:50;4.50;99.90
13652;DHT22;6899;51.546;6.912;2024-02-26T08:00:18;4.50;99.90
13652;DHT22;6899;51.546;6.912;2024-02-26T08:02:45;4.60;99.90
13652;DHT22;6899;51.546;6.912;2024-02-26T08:05:13;4.60;99.90
13652;DHT22;6899;51.546;6.912;2024-02-26T08:07:41;4.60;99.90
13652;DHT22;6899;51.546;6.912;2024-02-26T08:10:08;4.60;99.90
13652;DHT22;6899;51.546;6.912;2024-02-26T08:12:35;4.60;99.90
13652;DHT22;6899;51.546;6.912;2024-02-26T08:15:02;4.60;99.90
13652;DHT22;6899;51.546;6.912;2024-02-26T08:17:28;4.70;99.90
13652;DHT22;6899;51.546;6.912;2024-02-26T08:19:55;4.70;99.90
13652;DHT22;6899;51.546;6.912;2024-02-26T08:22:24;4.70;99.90
13652;DHT22;6899;51.546;6.912;2024-02-26T08:24:50;4.70;99.90
13652;DHT22;6899;51.546;6.912;2024-02-26T08:27:17;4.70;99.90
13652;DHT22;6899;51.546;6.912;2024-02-26T08:29:44;4.70;99.90
13652;DHT22;6899;51.546;6.912;2024-02-26T08:32:11;4.70;99.90
13652;DHT22;6899;51.546;6.912;2024-02-26T08:34:37;4.70;99.90
13652;DHT22;6899;51.546;6.912;2024-02-26T08:37:05;4.70;99.90
13652;DHT22;6899;51.546;6.912;2024-02-26T08:39:33;4.70;99.90
13652;DHT22;6899;51.546;6.912;2024-02-26T08:42:00;4.80;99.90
13652;DHT22;6899;51.546;6.912;2024-02-26T08:44:27;4.80;99.90
13652;DHT22;6899;51.546;6.912;2024-02-26T08:46:53;4.80;99.90
13652;DHT22;6899;51.546;6.912;2024-02-26T08:49:20;4.80;99.90
13652;DHT22;6899;51.546;6.912;2024-02-26T08:51:48;4.80;99.90
13652;DHT22;6899;51.546;6.912;2024-02-26T08:54:15;4.90;99.90
13652;DHT22;6899;51.546;6.912;2024-02-26T08:56:43;4.90;99.90
13652;DHT22;6899;51.546;6.912;2024-02-26T08:59:10;4.90;99.90
13652;DHT22;6899;51.546;6.912;2024-02-26T09:01:37;5.00;99.90
13652;DHT22;6899;51.546;6.912;2024-02-26T09:04:04;5.00;99.90
13652;DHT22;6899;51.546;6.912;2024-02-26T09:06:30;5.00;99.90
13652;DHT22;6899;51.546;6.912;2024-02-26T09:08:57;5.00;99.90
13652;DHT22;6899;51.546;6.912;2024-02-26T09:11:24;5.00;99.90
13652;DHT22;6899;51.546;6.912;2024-02-26T09:13:52;5.00;99.90
13652;DHT22;6899;51.546;6.912;2024-02-26T09:16:19;5.10;99.90
13652;DHT22;6899;51.546;6.912;2024-02-26T09:18:45;5.10;99.90
13652;DHT22;6899;51.546;6.912;2024-02-26T09:21:13;5.00;99.90
13652;DHT22;6899;51.546;6.912;2024-02-26T09:23:39;5.00;99.90
13652;DHT22;6899;51.546;6.912;2024-02-26T09:26:06;5.00;99.90
13652;DHT22;6899;51.546;6.912;2024-02-26T09:28:33;5.00;99.90
13652;DHT22;6899;51.546;6.912;2024-02-26T09:31:04;5.00;99.90
13652;DHT22;6899;51.546;6.912;2024-02-26T09:33:31;5.00;99.90
13652;DHT22;6899;51.546;6.912;2024-02-26T09:35:58;5.00;99.90
13652;DHT22;6899;51.546;6.912;2024-02-26T09:38:26;5.00;99.90
13652;DHT22;6899;51.546;6.912;2024-02-26T09:40:52;5.00;99.90
13652;DHT22;6899;51.546;6.912;2024-02-26T09:43:22;5.00;99.90
13652;DHT22;6899;51.546;6.912;2024-02-26T09:45:50;5.00;99.90
13652;DHT22;6899;51.546;6.912;2024-02-26T09:48:20;5.00;99.90
13652;DHT22;6899;51.546;6.912;2024-02-26T09:50:47;5.00;99.90
13652;DHT22;6899;51.546;6.912;2024-02-26T09:53:13;5.00;99.90
13652;DHT22;6899;51.546;6.912;2024-02-26T09:55:40;5.00;99.90
13652;DHT22;6899;51.546;6.912;2024-02-26T09:58:08;5.00;99.90
13652;DHT22;6899;51.546;6.912;2024-02-26T10:00:37;5.00;99.90
13652;DHT22;6899;51.546;6.912;2024-02-26T10:03:05;5.00;99.90
13652;DHT22;6899;51.546;6.912;2024-02-26T10:05:34;5.00;99.90
13652;DHT22;6899;51.546;6.912;2024-02-26T10:08:01;5.00;99.90
13652;DHT22;6899;51.546;6.912;2024-02-26T10:10:29;5.00;99.90
13652;DHT22;6899;51.546;6.912;2024-02-26T10:12:57;5.00;99.90
13652;DHT22;6899;51.546;6.912;2024-02-26T10:15:24;5.10;99.90
13652;DHT22;6899;51.546;6.912;2024-02-26T10:17:51;5.10;99.90
13652;DHT22;6899;51.546;6.912;2024-02-26T10:20:19;5.10;99.90
13652;DHT22;6899;51.546;6.912;2024-02-26T10:22:48;5.10;99.90
13652;DHT22;6899;51.546;6.912;2024-02-26T10:25:15;5.20;99.90
13652;DHT22;6899;51.546;6.912;2024-02-26T10:27:42;5.20;99.90
13652;DHT22;6899;51.546;6.912;2024-02-26T10:30:20;5.20;99.90
13652;DHT22;6899;51.546;6.912;2024-02-26T10:32:48;5.20;99.90
13652;DHT22;6899;51.546;6.912;2024-02-26T10:35:16;5.30;99.90
13652;DHT22;6899;51.546;6.912;2024-02-26T10:37:43;5.30;99.90
13652;DHT22;6899;51.546;6.912;2024-02-26T10:40:12;5.40;99.90
13652;DHT22;6899;51.546;6.912;2024-02-26T10:42:39;5.50;99.90
13652;DHT22;6899;51.546;6.912;2024-02-26T10:45:06;5.50;99.90
13652;DHT22;6899;51.546;6.912;2024-02-26T10:47:34;5.60;99.90
13652;DHT22;6899;51.546;6.912;2024-02-26T10:50:02;5.70;99.90
13652;DHT22;6899;51.546;6.912;2024-02-26T10:52:31;5.70;99.90
13652;DHT22;6899;51.546;6.912;2024-02-26T10:55:01;5.70;99.90
13652;DHT22;6899;51.546;6.912;2024-02-26T10:57:33;5.80;99.90
13652;DHT22;6899;51.546;6.912;2024-02-26T11:00:01;5.80;99.90
13652;DHT22;6899;51.546;6.912;2024-02-26T11:02:31;5.80;99.90
13652;DHT22;6899;51.546;6.912;2024-02-26T11:05:00;5.80;99.90
13652;DHT22;6899;51.546;6.912;2024-02-26T11:07:29;5.80;99.90
13652;DHT22;6899;51.546;6.912;2024-02-26T11:09:57;5.80;99.90
13652;DHT22;6899;51.546;6.912;2024-02-26T11:12:27;5.80;99.90
13652;DHT22;6899;51.546;6.912;2024-02-26T11:14:55;5.90;99.90
13652;DHT22;6899;51.546;6.912;2024-02-26T11:17:26;5.90;99.90
13652;DHT22;6899;51.546;6.912;2024-02-26T11:19:55;6.10;99.90
13652;DHT22;6899;51.546;6.912;2024-02-26T11:22:21;6.30;99.90
13652;DHT22;6899;51.546;6.912;2024-02-26T11:24:48;6.40;99.90
13652;DHT22;6899;51.546;6.912;2024-02-26T11:27:17;6.40;99.90
13652;DHT22;6899;51.546;6.912;2024-02-26T11:29:48;6.30;99.90
13652;DHT22;6899;51.546;6.912;2024-02-26T11:32:17;6.30;99.90
13652;DHT22;6899;51.546;6.912;2024-02-26T11:34:44;6.30;99.90
13652;DHT22;6899;51.546;6.912;2024-02-26T11:37:11;6.30;99.90
13652;DHT22;6899;51.546;6.912;2024-02-26T11:39:40;6.30;99.90
13652;DHT22;6899;51.546;6.912;2024-02-26T11:42:08;6.20;99.90
13652;DHT22;6899;51.546;6.912;2024-02-26T11:44:35;6.30;99.90
13652;DHT22;6899;51.546;6.912;2024-02-26T11:47:10;6.30;99.90
13652;DHT22;6899;51.546;6.912;2024-02-26T11:49:38;6.30;99.90
13652;DHT22;6899;51.546;6.912;2024-02-26T11:52:07;6.30;99.90
13652;DHT22;6899;51.546;6.912;2024-02-26T11:54:44;6.40;99.90
13652;DHT22;6899;51.546;6.912;2024-02-26T11:57:26;6.40;99.90
13652;DHT22;6899;51.546;6.912;2024-02-26T11:59:54;6.40;99.90
13652;DHT22;6899;51.546;6.912;2024-02-26T12:02:41;6.40;99.90
13652;DHT22;6899;51.546;6.912;2024-02-26T12:05:10;6.40;99.90
13652;DHT22;6899;51.546;6.912;2024-02-26T12:07:40;6.40;99.90
13652;DHT22;6899;51.546;6.912;2024-02-26T12:10:21;6.50;99.90
13652;DHT22;6899;51.546;6.912;2024-02-26T12:12:53;6.50;99.90
13652;DHT22;6899;51.546;6.912;2024-02-26T12:15:23;6.50;99.90
13652;DHT22;6899;51.546;6.912;2024-02-26T12:17:52;6.50;99.90
13652;DHT22;6899;51.546;6.912;2024-02-26T12:20:21;6.60;99.90
13652;DHT22;6899;51.546;6.912;2024-02-26T12:22:50;6.70;99.90
13652;DHT22;6899;51.546;6.912;2024-02-26T12:25:20;6.70;99.90
13652;DHT22;6899;51.546;6.912;2024-02-26T12:27:47;6.80;99.90
13652;DHT22;6899;51.546;6.912;2024-02-26T12:30:14;6.80;99.90
13652;DHT22;6899;51.546;6.912;2024-02-26T12:32:41;6.90;99.90
13652;DHT22;6899;51.546;6.912;2024-02-26T12:35:08;6.90;99.90
13652;DHT22;6899;51.546;6.912;2024-02-26T12:37:36;6.80;99.90
13652;DHT22;6899;51.546;6.912;2024-02-26T12:40:05;6.80;99.90
13652;DHT22;6899;51.546;6.912;2024-02-26T12:42:33;6.70;99.90
13652;DHT22;6899;51.546;6.912;2024-02-26T12:45:05;6.60;99.90
13652;DHT22;6899;51.546;6.912;2024-02-26T12:47:35;6.60;99.90
13652;DHT22;6899;51.546;6.912;2024-02-26T12:50:02;6.50;99.90
13652;DHT22;6899;51.546;6.912;2024-02-26T12:52:30;6.50;99.90
13652;DHT22;6899;51.546;6.912;2024-02-26T12:54:59;6.40;99.90
13652;DHT22;6899;51.546;6.912;2024-02-26T12:57:26;6.50;99.90
13652;DHT22;6899;51.546;6.912;2024-02-26T12:59:55;6.50;99.90
13652;DHT22;6899;51.546;6.912;2024-02-26T13:02:22;6.50;99.90
13652;DHT22;6899;51.546;6.912;2024-02-26T13:04:49;6.60;99.90
13652;DHT22;6899;51.546;6.912;2024-02-26T13:07:16;6.60;99.90
13652;DHT22;6899;51.546;6.912;2024-02-26T13:09:43;6.50;99.90
13652;DHT22;6899;51.546;6.912;2024-02-26T13:12:12;6.60;99.90
13652;DHT22;6899;51.546;6.912;2024-02-26T13:14:39;6.70;99.90
13652;DHT22;6899;51.546;6.912;2024-02-26T13:17:06;6.70;99.90
13652;DHT22;6899;51.546;6.912;2024-02-26T13:19:32;6.70;99.90
13652;DHT22;6899;51.546;6.912;2024-02-26T13:22:04;6.70;99.90
13652;DHT22;6899;51.546;6.912;2024-02-26T13:24:31;6.70;99.90
13652;DHT22;6899;51.546;6.912;2024-02-26T13:26:58;6.70;99.90
13652;DHT22;6899;51.546;6.912;2024-02-26T13:29:27;6.80;99.90
13652;DHT22;6899;51.546;6.912;2024-02-26T13:31:54;6.80;99.90
13652;DHT22;6899;51.546;6.912;2024-02-26T13:34:26;6.80;99.90
13652;DHT22;6899;51.546;6.912;2024-02-26T13:36:53;6.80;99.90
13652;DHT22;6899;51.546;6.912;2024-02-26T13:39:23;6.90;99.90
13652;DHT22;6899;51.546;6.912;2024-02-26T13:41:50;6.90;99.90
13652;DHT22;6899;51.546;6.912;2024-02-26T13:44:17;7.00;99.90
13652;DHT22;6899;51.546;6.912;2024-02-26T13:46:46;6.80;99.90
13652;DHT22;6899;51.546;6.912;2024-02-26T13:49:12;6.90;99.90
13652;DHT22;6899;51.546;6.912;2024-02-26T13:51:39;6.90;99.90
13652;DHT22;6899;51.546;6.912;2024-02-26T13:54:06;6.90;99.90
13652;DHT22;6899;51.546;6.912;2024-02-26T13:56:35;6.80;99.90
13652;DHT22;6899;51.546;6.912;2024-02-26T13:59:02;6.80;99.90
13652;DHT22;6899;51.546;6.912;2024-02-26T14:01:29;6.80;99.90
13652;DHT22;6899;51.546;6.912;2024-02-26T14:04:00;6.80;99.90
13652;DHT22;6899;51.546;6.912;2024-02-26T14:06:27;6.80;99.90
13652;DHT22;6899;51.546;6.912;2024-02-26T14:08:56;6.80;99.90
13652;DHT22;6899;51.546;6.912;2024-02-26T14:11:22;6.80;99.90
13652;DHT22;6899;51.546;6.912;2024-02-26T14:13:50;6.90;99.90
13652;DHT22;6899;51.546;6.912;2024-02-26T14:16:17;6.90;99.90
13652;DHT22;6899;51.546;6.912;2024-02-26T14:18:45;6.90;99.90
13652;DHT22;6899;51.546;6.912;2024-02-26T14:21:14;6.90;99.90
13652;DHT22;6899;51.546;6.912;2024-02-26T14:23:41;6.90;99.90
13652;DHT22;6899;51.546;6.912;2024-02-26T14:26:10;7.00;99.90
13652;DHT22;6899;51.546;6.912;2024-02-26T14:28:36;7.10;99.90
13652;DHT22;6899;51.546;6.912;2024-02-26T14:31:06;7.10;99.90
13652;DHT22;6899;51.546;6.912;2024-02-26T14:33:37;7.20;99.90
13652;DHT22;6899;51.546;6.912;2024-02-26T14:36:05;7.20;99.90
13652;DHT22;6899;51.546;6.912;2024-02-26T14:38:33;7.20;99.90
13652;DHT22;6899;51.546;6.912;2024-02-26T14:41:00;7.20;99.90
13652;DHT22;6899;51.546;6.912;2024-02-26T14:43:27;7.10;99.90
13652;DHT22;6899;51.546;6.912;2024-02-26T14:45:55;7.10;99.90
13652;DHT22;6899;51.546;6.912;2024-02-26T14:48:22;7.00;99.90
13652;DHT22;6899;51.546;6.912;2024-02-26T14:50:49;7.00;99.90
13652;DHT22;6899;51.546;6.912;2024-02-26T14:53:16;7.10;99.90
13652;DHT22;6899;51.546;6.912;2024-02-26T14:55:44;7.00;99.90
13652;DHT22;6899;51.546;6.912;2024-02-26T14:58:11;7.00;99.90
13652;DHT22;6899;51.546;6.912;2024-02-26T15:00:38;7.00;99.90
13652;DHT22;6899;51.546;6.912;2024-02-26T15:03:05;7.00;99.90
13652;DHT22;6899;51.546;6.912;2024-02-26T15:05:33;6.90;99.90
13652;DHT22;6899;51.546;6.912;2024-02-26T15:08:01;7.00;99.90
13652;DHT22;6899;51.546;6.912;2024-02-26T15:10:28;6.90;99.90
13652;DHT22;6899;51.546;6.912;2024-02-26T15:12:56;6.90;99.90
13652;DHT22;6899;51.546;6.912;2024-02-26T15:15:23;6.90;99.90
13652;DHT22;6899;51.546;6.912;2024-02-26T15:17:50;6.90;99.90
13652;DHT22;6899;51.546;6.912;2024-02-26T15:20:18;6.90;99.90
13652;DHT22;6899;51.546;6.912;2024-02-26T15:22:45;6.80;99.90
13652;DHT22;6899;51.546;6.912;2024-02-26T15:25:12;6.80;99.90
13652;DHT22;6899;51.546;6.912;2024-02-26T15:27:38;6.80;99.90
13652;DHT22;6899;51.546;6.912;2024-02-26T15:30:08;6.80;99.90
13652;DHT22;6899;51.546;6.912;2024-02-26T15:32:35;6.70;99.90
13652;DHT22;6899;51.546;6.912;2024-02-26T15:35:02;6.60;99.90
13652;DHT22;6899;51.546;6.912;2024-02-26T15:37:29;6.60;99.90
13652;DHT22;6899;51.546;6.912;2024-02-26T15:39:55;6.60;99.90
13652;DHT22;6899;51.546;6.912;2024-02-26T15:42:22;6.50;99.90
13652;DHT22;6899;51.546;6.912;2024-02-26T15:44:50;6.50;99.90
13652;DHT22;6899;51.546;6.912;2024-02-26T15:47:18;6.40;99.90
13652;DHT22;6899;51.546;6.912;2024-02-26T15:49:45;6.40;99.90
13652;DHT22;6899;51.546;6.912;2024-02-26T15:52:12;6.30;99.90
13652;DHT22;6899;51.546;6.912;2024-02-26T15:54:39;6.30;99.90
13652;DHT22;6899;51.546;6.912;2024-02-26T15:57:06;6.30;99.90
13652;DHT22;6899;51.546;6.912;2024-02-26T15:59:34;6.20;99.90
13652;DHT22;6899;51.546;6.912;2024-02-26T16:02:01;6.20;99.90
13652;DHT22;6899;51.546;6.912;2024-02-26T16:04:30;6.20;99.90